Time;durP1;ratioP1;P1;durP2;ratioP2;P2;SDS_P1;SDS_P2;PMS_P1;PMS_P2;Temp;Humidity;BMP_temperature;BMP_pressure;BME280_temperature;BME280_humidity;BME280_pressure;Samples;Min_cycle;Max_cycle;Signal;HPM_P1;HPM_P2
2023/10/14 00:02:01;;;;;;;3.20;2.80;;;18.90;99.90;;;;;;5074132;28;20480;-80
2023/10/14 00:04:30;;;;;;;1.63;1.53;;;18.90;99.90;;;;;;5073889;28;20470;-80
2023/10/14 00:07:00;;;;;;;0.70;0.60;;;18.90;99.90;;;;;;5073498;28;20448;-79
2023/10/14 00:09:33;;;;;;;0.60;0.40;;;19.00;99.90;;;;;;5073723;28;20528;-79
2023/10/14 00:12:03;;;;;;;2.30;2.10;;;18.90;99.90;;;;;;5073583;28;20429;-81
2023/10/14 00:14:31;;;;;;;1.00;1.00;;;18.90;99.90;;;;;;5073729;28;20468;-81
2023/10/14 00:16:59;;;;;;;1.63;1.53;;;19.00;99.90;;;;;;5073325;28;20482;-81
2023/10/14 00:19:25;;;;;;;1.37;1.03;;;18.90;99.90;;;;;;5073386;28;20428;-80
2023/10/14 00:21:54;;;;;;;1.27;1.03;;;18.90;99.90;;;;;;5072877;28;20436;-80
2023/10/14 00:24:26;;;;;;;0.83;0.77;;;18.50;99.90;;;;;;5073145;28;20482;-80
2023/10/14 00:26:53;;;;;;;1.43;1.23;;;18.30;99.90;;;;;;5072838;28;20932;-82
2023/10/14 00:29:20;;;;;;;2.57;2.30;;;18.10;99.90;;;;;;5072988;28;20445;-79
2023/10/14 00:31:48;;;;;;;7.63;4.40;;;18.00;99.90;;;;;;5073332;28;20432;-80
2023/10/14 00:34:15;;;;;;;0.80;0.70;;;17.80;99.90;;;;;;5072902;28;20986;-80
2023/10/14 00:36:42;;;;;;;1.90;1.60;;;17.70;99.90;;;;;;5073165;28;20428;-80
2023/10/14 00:39:16;;;;;;;2.07;1.53;;;17.50;99.90;;;;;;5073044;28;20781;-78
2023/10/14 00:41:44;;;;;;;0.70;0.70;;;17.50;99.90;;;;;;5073867;28;20432;-80
2023/10/14 00:44:10;;;;;;;1.90;1.80;;;17.40;99.90;;;;;;5073105;28;20449;-80
2023/10/14 00:46:42;;;;;;;0.80;0.80;;;17.40;99.90;;;;;;5072761;28;20544;-80
2023/10/14 00:49:11;;;;;;;2.10;2.00;;;17.40;99.90;;;;;;5072424;28;20440;-80
2023/10/14 00:51:42;;;;;;;8.40;2.23;;;17.40;99.90;;;;;;5076541;28;20924;-80
2023/10/14 00:54:12;;;;;;;1.17;1.03;;;17.40;99.90;;;;;;5076732;28;20453;-81
2023/10/14 00:56:41;;;;;;;3.50;3.30;;;17.30;99.90;;;;;;5076901;28;20436;-80
2023/10/14 00:59:10;;;;;;;1.77;1.67;;;17.40;99.90;;;;;;5076472;28;20462;-80
2023/10/14 01:01:55;;;;;;;1.20;1.10;;;17.40;99.90;;;;;;5075863;28;20928;-80
2023/10/14 01:04:31;;;;;;;1.03;0.70;;;17.30;99.90;;;;;;5068377;28;20448;-80
2023/10/14 01:07:04;;;;;;;0.60;0.40;;;17.20;99.90;;;;;;5075858;28;20527;-81
2023/10/14 01:09:48;;;;;;;0.60;0.60;;;17.20;99.90;;;;;;5077039;28;20816;-81
2023/10/14 01:12:23;;;;;;;1.33;1.33;;;17.10;99.90;;;;;;5076915;28;20470;-81
2023/10/14 01:14:52;;;;;;;0.50;0.37;;;16.80;99.90;;;;;;5077428;28;20456;-82
2023/10/14 01:17:26;;;;;;;0.60;0.50;;;16.40;99.90;;;;;;5061132;28;20433;-80
2023/10/14 01:19:53;;;;;;;0.50;0.30;;;16.00;99.90;;;;;;5076258;28;20437;-80
2023/10/14 01:22:21;;;;;;;0.50;0.40;;;15.50;99.90;;;;;;5076270;28;20480;-79
2023/10/14 01:24:48;;;;;;;0.50;0.40;;;15.30;99.90;;;;;;5076127;28;21054;-81
2023/10/14 01:27:16;;;;;;;0.50;0.40;;;15.10;99.90;;;;;;5076660;28;20437;-81
2023/10/14 01:29:44;;;;;;;0.50;0.40;;;14.90;99.90;;;;;;5076404;28;20440;-81
2023/10/14 01:32:37;;;;;;;0.50;0.30;;;14.80;99.90;;;;;;5076258;28;20494;-81
2023/10/14 01:35:13;;;;;;;0.50;0.40;;;14.70;99.90;;;;;;5075844;28;20503;-80
2023/10/14 01:37:44;;;;;;;0.50;0.30;;;14.60;99.90;;;;;;5076325;28;20460;-79
2023/10/14 01:40:24;;;;;;;0.50;0.30;;;14.50;99.90;;;;;;5076294;28;20459;-81
2023/10/14 01:42:56;;;;;;;0.50;0.40;;;14.50;99.90;;;;;;5082228;22;20517;-83
2023/10/14 01:45:24;;;;;;;0.50;0.40;;;14.30;99.90;;;;;;5030333;28;20447;-83
2023/10/14 01:48:05;;;;;;;0.50;0.50;;;14.20;99.90;;;;;;5042857;28;20466;-83
2023/10/14 01:50:32;;;;;;;0.50;0.40;;;14.10;99.90;;;;;;5041706;28;20445;-80
2023/10/14 01:53:11;;;;;;;0.50;0.40;;;14.10;99.90;;;;;;5045889;28;20458;-81
2023/10/14 01:55:41;;;;;;;0.50;0.40;;;14.00;99.90;;;;;;5054670;28;20525;-84
2023/10/14 01:58:10;;;;;;;0.50;0.40;;;14.00;99.90;;;;;;5054321;28;20437;-84
2023/10/14 02:00:39;;;;;;;0.50;0.40;;;14.00;99.90;;;;;;5054201;28;20533;-83
2023/10/14 02:03:07;;;;;;;0.50;0.40;;;13.90;99.90;;;;;;5054120;28;20848;-84
2023/10/14 02:05:39;;;;;;;0.50;0.40;;;13.90;99.90;;;;;;5053799;28;20453;-82
2023/10/14 02:08:13;;;;;;;0.50;0.30;;;13.90;99.90;;;;;;5054422;28;20862;-84
2023/10/14 02:10:46;;;;;;;0.50;0.40;;;13.90;99.90;;;;;;5054227;28;20445;-83
2023/10/14 02:13:14;;;;;;;0.50;0.40;;;13.90;99.90;;;;;;5053875;28;20458;-82
2023/10/14 02:15:46;;;;;;;0.50;0.40;;;14.00;99.90;;;;;;5053544;28;20437;-81
2023/10/14 02:18:13;;;;;;;0.50;0.30;;;14.00;99.90;;;;;;5053724;28;20434;-83
2023/10/14 02:20:56;;;;;;;0.50;0.40;;;13.90;99.90;;;;;;5053892;28;20437;-84
2023/10/14 02:23:25;;;;;;;0.50;0.37;;;13.90;99.90;;;;;;5053792;28;20477;-83
2023/10/14 02:25:56;;;;;;;0.50;0.40;;;13.90;99.90;;;;;;5053546;28;20442;-83
2023/10/14 02:28:22;;;;;;;0.50;0.40;;;13.90;99.90;;;;;;5053763;28;20442;-83
2023/10/14 02:30:51;;;;;;;0.50;0.40;;;13.80;99.90;;;;;;5054143;28;20690;-84
2023/10/14 02:33:18;;;;;;;0.50;0.40;;;13.80;99.90;;;;;;5053298;28;20977;-83
2023/10/14 02:35:46;;;;;;;0.50;0.30;;;13.80;99.90;;;;;;5053555;28;20881;-83
2023/10/14 02:38:12;;;;;;;0.50;0.40;;;13.80;99.90;;;;;;5053936;28;20442;-83
2023/10/14 02:40:41;;;;;;;0.50;0.40;;;13.80;99.90;;;;;;5053521;28;20448;-81
2023/10/14 02:43:07;;;;;;;0.50;0.40;;;13.80;99.90;;;;;;5053275;28;20481;-83
2023/10/14 02:45:39;;;;;;;0.50;0.40;;;13.70;99.90;;;;;;5053597;28;20441;-82
2023/10/14 02:48:06;;;;;;;0.50;0.40;;;13.70;99.90;;;;;;5053513;28;20552;-80
2023/10/14 02:50:33;;;;;;;0.50;0.40;;;13.80;99.90;;;;;;5053261;28;20444;-83
2023/10/14 02:53:06;;;;;;;0.50;0.40;;;13.80;99.90;;;;;;5053276;28;20841;-84
2023/10/14 02:58:20;;;;;;;0.50;0.40;;;13.80;99.90;;;;;;5052618;28;20434;-84
2023/10/14 03:00:49;;;;;;;0.50;0.30;;;13.80;99.90;;;;;;5053114;28;20472;-83
2023/10/14 03:03:16;;;;;;;0.50;0.40;;;13.80;99.90;;;;;;5052763;28;20483;-83
2023/10/14 03:05:51;;;;;;;1.10;0.63;;;13.80;99.90;;;;;;5052641;28;20454;-83
2023/10/14 03:08:18;;;;;;;0.50;0.40;;;13.80;99.90;;;;;;5053462;28;20441;-83
2023/10/14 03:10:46;;;;;;;0.50;0.40;;;13.50;99.90;;;;;;5052817;28;20469;-83
2023/10/14 03:13:13;;;;;;;0.50;0.40;;;13.30;99.90;;;;;;5052072;28;20486;-80
2023/10/14 03:15:44;;;;;;;0.50;0.40;;;13.20;99.90;;;;;;5052992;28;20446;-83
2023/10/14 03:18:16;;;;;;;0.50;0.40;;;13.10;99.90;;;;;;5053054;28;20446;-83
2023/10/14 03:20:58;;;;;;;0.50;0.40;;;13.00;99.90;;;;;;5052832;28;20441;-82
2023/10/14 03:23:26;;;;;;;0.50;0.40;;;12.80;99.90;;;;;;5052538;28;20477;-82
2023/10/14 03:26:01;;;;;;;0.50;0.40;;;12.70;99.90;;;;;;5052902;28;20446;-82
2023/10/14 03:28:28;;;;;;;0.50;0.40;;;12.70;99.90;;;;;;5052815;28;20448;-82
2023/10/14 03:30:58;;;;;;;0.50;0.40;;;12.60;99.90;;;;;;5052894;28;20966;-83
2023/10/14 03:33:27;;;;;;;0.50;0.40;;;12.70;99.90;;;;;;5052690;28;20515;-83
2023/10/14 03:35:57;;;;;;;0.50;0.40;;;12.70;99.90;;;;;;5058962;28;20430;-83
2023/10/14 03:38:39;;;;;;;0.50;0.40;;;12.70;99.90;;;;;;5072061;28;20491;-83
2023/10/14 03:41:16;;;;;;;0.50;0.40;;;12.70;99.90;;;;;;5055128;28;20798;-83
2023/10/14 03:43:49;;;;;;;0.50;0.40;;;12.60;99.90;;;;;;5055993;28;20477;-84
2023/10/14 03:46:23;;;;;;;0.70;0.70;;;12.50;99.90;;;;;;5057901;28;20535;-84
2023/10/14 03:48:54;;;;;;;0.50;0.40;;;12.60;99.90;;;;;;5052614;28;20441;-83
2023/10/14 03:51:24;;;;;;;0.50;0.40;;;12.60;99.90;;;;;;5052148;28;20446;-83
2023/10/14 03:53:52;;;;;;;0.50;0.40;;;12.60;99.90;;;;;;5052070;28;20497;-82
2023/10/14 03:56:21;;;;;;;0.50;0.40;;;12.60;99.90;;;;;;5051791;28;20866;-81
2023/10/14 03:58:49;;;;;;;0.50;0.40;;;12.60;99.90;;;;;;5052161;28;20446;-82
2023/10/14 04:01:22;;;;;;;0.50;0.40;;;12.60;99.90;;;;;;5051890;28;20819;-83
2023/10/14 04:03:52;;;;;;;0.50;0.40;;;12.60;99.90;;;;;;5052164;28;20527;-81
2023/10/14 04:06:19;;;;;;;0.50;0.40;;;12.60;99.90;;;;;;5051882;28;20533;-82
2023/10/14 04:08:47;;;;;;;0.50;0.40;;;12.60;99.90;;;;;;5052377;28;20496;-83
2023/10/14 04:11:16;;;;;;;0.50;0.40;;;12.60;99.90;;;;;;5059173;28;20449;-83
2023/10/14 04:13:51;;;;;;;0.50;0.40;;;12.60;99.90;;;;;;5052044;28;20489;-82
2023/10/14 04:16:28;;;;;;;0.50;0.40;;;12.50;99.90;;;;;;5051669;28;20476;-79
2023/10/14 04:19:00;;;;;;;0.50;0.40;;;12.50;99.90;;;;;;5052193;28;20766;-82
2023/10/14 04:21:35;;;;;;;0.50;0.40;;;12.50;99.90;;;;;;5052166;28;20441;-82
2023/10/14 04:24:13;;;;;;;0.50;0.40;;;12.40;99.90;;;;;;5052129;28;20555;-82
2023/10/14 04:26:41;;;;;;;0.50;0.40;;;12.30;99.90;;;;;;5055834;28;20432;-83
2023/10/14 04:29:17;;;;;;;0.50;0.40;;;12.20;99.90;;;;;;5056498;28;20438;-83
2023/10/14 04:31:55;;;;;;;0.50;0.40;;;12.10;99.90;;;;;;5042292;28;20445;-82
2023/10/14 04:34:23;;;;;;;0.50;0.40;;;12.10;99.90;;;;;;5055826;28;20822;-83
2023/10/14 04:36:56;;;;;;;0.50;0.40;;;12.00;99.90;;;;;;5055885;28;20528;-82
2023/10/14 04:39:33;;;;;;;0.50;0.40;;;12.00;99.90;;;;;;5055378;28;20863;-82
2023/10/14 04:42:22;;;;;;;0.50;0.40;;;11.90;99.90;;;;;;5055972;28;20528;-82
2023/10/14 04:44:55;;;;;;;0.50;0.40;;;11.80;99.90;;;;;;5043283;28;20481;-83
2023/10/14 04:47:35;;;;;;;0.50;0.40;;;11.80;99.90;;;;;;5055409;28;20519;-82
2023/10/14 04:50:10;;;;;;;0.50;0.40;;;11.70;99.90;;;;;;5055198;28;21008;-80
2023/10/14 04:52:38;;;;;;;0.50;0.40;;;11.60;99.90;;;;;;5055744;28;20461;-82
2023/10/14 04:55:18;;;;;;;0.50;0.40;;;11.60;99.90;;;;;;5056086;28;20195;-82
2023/10/14 04:57:50;;;;;;;0.50;0.40;;;11.50;99.90;;;;;;5041663;28;20206;-83
2023/10/14 05:00:30;;;;;;;0.50;0.40;;;11.50;99.90;;;;;;5055357;28;20805;-82
2023/10/14 05:02:59;;;;;;;0.50;0.40;;;11.50;99.90;;;;;;5055784;28;20309;-82
2023/10/14 05:05:30;;;;;;;0.50;0.40;;;11.50;99.90;;;;;;5055292;28;20476;-82
2023/10/14 05:07:59;;;;;;;0.50;0.50;;;11.50;99.90;;;;;;5055341;28;20478;-83
2023/10/14 05:10:28;;;;;;;0.50;0.40;;;11.50;99.90;;;;;;5055080;28;20944;-83
2023/10/14 05:12:55;;;;;;;0.50;0.40;;;11.40;99.90;;;;;;5055395;28;20501;-82
2023/10/14 05:15:26;;;;;;;0.60;0.60;;;11.40;99.90;;;;;;5054858;28;20441;-83
2023/10/14 05:18:00;;;;;;;0.50;0.40;;;11.40;99.90;;;;;;5054921;28;20444;-81
2023/10/14 05:20:47;;;;;;;0.50;0.40;;;11.40;99.90;;;;;;5054870;28;20212;-81
2023/10/14 05:23:19;;;;;;;0.50;0.40;;;11.30;99.90;;;;;;5054992;28;20699;-79
2023/10/14 05:25:48;;;;;;;0.50;0.40;;;11.30;99.90;;;;;;5040417;28;20456;-83
2023/10/14 05:28:16;;;;;;;0.50;0.40;;;11.20;99.90;;;;;;5054839;28;20511;-82
2023/10/14 05:30:49;;;;;;;0.50;0.40;;;11.20;99.90;;;;;;5054629;28;20510;-82
2023/10/14 05:33:15;;;;;;;0.50;0.40;;;11.20;99.90;;;;;;5054411;28;20467;-81
2023/10/14 05:35:44;;;;;;;0.50;0.40;;;11.20;99.90;;;;;;5054514;28;20198;-81
2023/10/14 05:38:11;;;;;;;0.50;0.40;;;11.10;99.90;;;;;;5055105;28;20448;-80
2023/10/14 05:40:39;;;;;;;0.50;0.40;;;11.10;99.90;;;;;;5054266;28;20442;-81
2023/10/14 05:43:06;;;;;;;8.57;7.93;;;11.10;99.90;;;;;;5054512;28;20548;-80
2023/10/14 05:45:35;;;;;;;0.50;0.40;;;11.00;99.90;;;;;;5054708;28;20488;-80
2023/10/14 05:48:03;;;;;;;0.50;0.40;;;11.00;99.90;;;;;;5054530;28;20500;-81
2023/10/14 05:50:30;;;;;;;6.10;2.33;;;11.00;99.90;;;;;;5054341;28;20499;-79
2023/10/14 05:52:59;;;;;;;0.50;0.40;;;11.00;99.90;;;;;;5056356;28;20551;-78
2023/10/14 05:55:29;;;;;;;0.50;0.40;;;10.90;99.90;;;;;;5056062;28;20473;-80
2023/10/14 05:58:00;;;;;;;0.50;0.40;;;10.90;99.90;;;;;;5056550;28;20482;-80
2023/10/14 06:00:27;;;;;;;0.50;0.40;;;10.90;99.90;;;;;;5055743;28;20449;-77
2023/10/14 06:02:55;;;;;;;0.60;0.60;;;10.90;99.90;;;;;;5055221;28;20245;-81
2023/10/14 06:05:23;;;;;;;0.50;0.40;;;10.90;99.90;;;;;;5054778;28;20568;-78
2023/10/14 06:07:50;;;;;;;0.50;0.40;;;10.80;99.90;;;;;;5055091;28;20445;-79
2023/10/14 06:10:22;;;;;;;0.50;0.50;;;10.90;99.90;;;;;;5055794;28;20448;-81
2023/10/14 06:12:52;;;;;;;0.50;0.40;;;10.90;99.90;;;;;;5040687;28;20908;-79
2023/10/14 06:15:20;;;;;;;0.50;0.40;;;10.90;99.90;;;;;;5054857;28;20441;-78
2023/10/14 06:17:47;;;;;;;0.50;0.40;;;10.90;99.90;;;;;;5039070;28;21004;-80
2023/10/14 06:20:16;;;;;;;0.50;0.40;;;10.90;99.90;;;;;;5055001;28;20434;-78
2023/10/14 06:22:44;;;;;;;0.50;0.40;;;10.90;99.90;;;;;;5054437;28;20594;-81
2023/10/14 06:25:15;;;;;;;0.50;0.40;;;10.90;99.90;;;;;;5054572;28;20480;-77
2023/10/14 06:27:45;;;;;;;0.50;0.40;;;10.90;99.90;;;;;;5055026;28;20457;-79
2023/10/14 06:30:20;;;;;;;0.50;0.47;;;11.00;99.90;;;;;;5054317;28;20211;-81
2023/10/14 06:32:48;;;;;;;0.50;0.40;;;11.00;99.90;;;;;;5038296;28;20542;-80
2023/10/14 06:35:15;;;;;;;0.50;0.40;;;10.90;99.90;;;;;;5054413;28;20438;-80
2023/10/14 06:37:45;;;;;;;0.50;0.40;;;10.90;99.90;;;;;;5054869;28;20469;-79
2023/10/14 06:40:13;;;;;;;0.70;0.70;;;11.00;99.90;;;;;;5054939;28;20461;-81
2023/10/14 06:42:43;;;;;;;0.50;0.40;;;11.00;99.90;;;;;;5059672;28;20470;-81
2023/10/14 06:45:13;;;;;;;0.50;0.50;;;11.00;99.90;;;;;;5058320;28;20508;-79
2023/10/14 06:47:45;;;;;;;0.50;0.40;;;11.10;99.90;;;;;;5055180;28;20199;-81
2023/10/14 06:50:13;;;;;;;0.50;0.50;;;11.00;99.90;;;;;;5062326;28;20457;-82
2023/10/14 06:52:40;;;;;;;0.50;0.40;;;11.10;99.90;;;;;;5062328;28;20470;-81
2023/10/14 06:55:07;;;;;;;0.50;0.40;;;11.10;99.90;;;;;;5065208;28;20441;-82
2023/10/14 06:57:35;;;;;;;0.50;0.40;;;11.10;99.90;;;;;;5066300;28;20430;-81
2023/10/14 07:00:02;;;;;;;0.70;0.70;;;11.20;99.90;;;;;;5062732;28;20214;-82
2023/10/14 07:02:32;;;;;;;0.60;0.50;;;11.20;99.90;;;;;;5065345;28;20518;-81
2023/10/14 07:04:59;;;;;;;0.50;0.40;;;11.20;99.90;;;;;;5073369;28;20576;-82
2023/10/14 07:07:26;;;;;;;0.50;0.40;;;11.20;99.90;;;;;;5064021;28;20446;-81
2023/10/14 07:09:53;;;;;;;0.50;0.40;;;11.30;99.90;;;;;;5062492;28;20195;-82
2023/10/14 07:12:21;;;;;;;0.60;0.50;;;11.20;99.90;;;;;;5062586;28;20509;-81
2023/10/14 07:14:48;;;;;;;0.50;0.40;;;11.30;99.90;;;;;;5057047;28;20434;-82
2023/10/14 07:17:17;;;;;;;0.50;0.40;;;11.40;99.90;;;;;;5054265;28;20832;-81
2023/10/14 07:19:47;;;;;;;0.60;0.50;;;11.50;99.90;;;;;;5054717;28;20195;-82
2023/10/14 07:22:18;;;;;;;0.50;0.40;;;11.60;99.90;;;;;;5054551;28;20209;-79
2023/10/14 07:24:45;;;;;;;0.50;0.40;;;11.60;99.90;;;;;;5054270;28;20569;-80
2023/10/14 07:27:11;;;;;;;0.60;0.60;;;11.70;99.90;;;;;;5055514;28;20829;-81
2023/10/14 07:29:39;;;;;;;0.50;0.40;;;11.80;99.90;;;;;;5056289;28;20959;-81
2023/10/14 07:32:06;;;;;;;0.50;0.40;;;11.90;99.90;;;;;;5056698;28;20438;-82
2023/10/14 07:34:33;;;;;;;0.50;0.40;;;12.10;99.90;;;;;;5055142;28;20461;-83
2023/10/14 07:37:02;;;;;;;0.50;0.40;;;12.20;99.90;;;;;;5058499;28;20437;-82
2023/10/14 07:39:32;;;;;;;0.60;0.60;;;12.30;99.90;;;;;;5057553;28;20473;-82
2023/10/14 07:41:58;;;;;;;0.50;0.40;;;12.30;99.90;;;;;;5058393;28;20442;-82
2023/10/14 07:44:25;;;;;;;0.50;0.40;;;12.40;99.90;;;;;;5057856;28;20480;-81
2023/10/14 07:46:53;;;;;;;0.50;0.40;;;12.70;99.90;;;;;;5062550;28;20453;-81
2023/10/14 07:49:20;;;;;;;0.50;0.40;;;13.20;99.90;;;;;;5063070;28;20452;-83
2023/10/14 07:51:47;;;;;;;0.50;0.40;;;13.90;99.90;;;;;;5058766;28;20507;-80
2023/10/14 07:54:16;;;;;;;1.63;1.53;;;14.10;99.90;;;;;;5054792;28;20544;-82
2023/10/14 07:56:46;;;;;;;0.50;0.40;;;14.60;99.90;;;;;;5054031;28;20507;-81
2023/10/14 07:59:14;;;;;;;0.50;0.40;;;15.10;99.90;;;;;;5052987;28;20441;-82
2023/10/14 08:01:40;;;;;;;2.57;2.10;;;15.70;99.90;;;;;;5054037;28;20873;-82
2023/10/14 08:04:14;;;;;;;0.50;0.40;;;15.70;99.90;;;;;;5055642;28;20830;-82
2023/10/14 08:06:41;;;;;;;0.50;0.40;;;15.20;99.90;;;;;;5055407;28;20461;-81
2023/10/14 08:09:17;;;;;;;6.03;0.57;;;14.90;99.90;;;;;;5055717;28;20503;-82
2023/10/14 08:11:45;;;;;;;0.50;0.40;;;15.10;99.90;;;;;;5055625;28;20524;-81
2023/10/14 08:14:12;;;;;;;0.50;0.40;;;15.50;99.90;;;;;;5055030;28;20875;-80
2023/10/14 08:16:41;;;;;;;0.50;0.40;;;16.30;99.90;;;;;;5053623;28;20442;-81
2023/10/14 08:19:10;;;;;;;0.50;0.40;;;17.10;99.90;;;;;;5055786;28;20472;-82
2023/10/14 08:21:37;;;;;;;0.50;0.30;;;17.30;99.90;;;;;;5055351;28;20454;-82
2023/10/14 08:24:05;;;;;;;0.50;0.30;;;17.90;99.90;;;;;;5056971;28;20542;-81
2023/10/14 08:26:34;;;;;;;0.77;0.77;;;18.60;99.90;;;;;;5054111;28;20472;-81
2023/10/14 08:29:02;;;;;;;0.50;0.40;;;18.90;99.90;;;;;;5055104;28;20441;-82
2023/10/14 08:31:32;;;;;;;0.50;0.30;;;18.80;99.90;;;;;;5054567;28;20481;-80
2023/10/14 08:33:59;;;;;;;0.50;0.30;;;19.20;99.90;;;;;;5038383;28;20461;-82
2023/10/14 08:36:26;;;;;;;0.50;0.30;;;19.30;99.90;;;;;;5054551;28;20441;-82
2023/10/14 08:38:53;;;;;;;0.50;0.33;;;19.60;99.90;;;;;;5055396;28;20925;-82
2023/10/14 08:41:20;;;;;;;0.57;0.40;;;19.90;99.90;;;;;;5055846;28;20469;-82
2023/10/14 08:43:50;;;;;;;0.50;0.30;;;20.00;99.90;;;;;;5053999;28;20478;-82
2023/10/14 08:46:23;;;;;;;0.50;0.30;;;20.00;99.90;;;;;;5054570;28;20477;-82
2023/10/14 08:48:52;;;;;;;0.80;0.80;;;20.00;99.90;;;;;;5057670;28;20878;-83
2023/10/14 08:51:21;;;;;;;0.50;0.30;;;20.60;99.90;;;;;;5059750;28;20517;-82
2023/10/14 08:53:53;;;;;;;0.50;0.50;;;20.90;99.90;;;;;;5058895;28;20472;-82
2023/10/14 08:56:22;;;;;;;5.30;1.27;;;21.10;99.90;;;;;;5054351;28;20860;-78
2023/10/14 08:58:49;;;;;;;0.50;0.30;;;21.00;99.90;;;;;;5052996;28;20449;-81
2023/10/14 09:01:19;;;;;;;0.50;0.30;;;20.90;99.90;;;;;;5053471;28;20452;-81
2023/10/14 09:03:49;;;;;;;2.97;1.07;;;21.20;99.90;;;;;;5054636;28;20453;-82
2023/10/14 09:06:17;;;;;;;0.50;0.30;;;21.20;99.90;;;;;;5053983;28;20836;-81
2023/10/14 09:08:48;;;;;;;0.50;0.33;;;21.70;99.90;;;;;;5052636;28;20446;-81
2023/10/14 09:11:27;;;;;;;0.50;0.30;;;21.40;99.90;;;;;;5053375;28;20451;-81
2023/10/14 09:14:03;;;;;;;0.60;0.60;;;21.00;99.90;;;;;;5055927;28;20558;-80
2023/10/14 09:16:34;;;;;;;0.50;0.40;;;20.40;99.90;;;;;;5056257;28;20516;-82
2023/10/14 09:19:04;;;;;;;0.50;0.30;;;19.50;99.90;;;;;;5056013;28;20441;-80
2023/10/14 09:21:32;;;;;;;0.50;0.40;;;18.90;99.90;;;;;;5056468;28;20471;-81
2023/10/14 09:24:07;;;;;;;0.50;0.30;;;18.20;99.90;;;;;;5056689;28;20460;-81
2023/10/14 09:26:38;;;;;;;0.50;0.30;;;17.80;99.90;;;;;;5057955;28;21168;-81
2023/10/14 09:29:09;;;;;;;0.67;0.67;;;17.50;99.90;;;;;;5040873;28;20494;-81
2023/10/14 09:31:39;;;;;;;0.50;0.40;;;17.20;99.90;;;;;;5056640;28;20442;-80
2023/10/14 09:34:08;;;;;;;0.50;0.40;;;16.80;99.90;;;;;;5040692;28;20467;-80
2023/10/14 09:36:42;;;;;;;0.50;0.40;;;16.50;99.90;;;;;;5056802;28;20495;-80
2023/10/14 09:39:15;;;;;;;0.50;0.40;;;16.10;99.90;;;;;;5056006;28;20445;-79
2023/10/14 09:41:46;;;;;;;0.50;0.40;;;16.10;99.90;;;;;;5056197;28;20796;-79
2023/10/14 09:44:14;;;;;;;0.50;0.40;;;16.10;99.90;;;;;;5055839;28;20980;-79
2023/10/14 09:46:43;;;;;;;0.50;0.30;;;16.10;99.90;;;;;;5055842;28;20473;-78
2023/10/14 09:49:10;;;;;;;0.50;0.40;;;16.10;99.90;;;;;;5055864;28;20448;-79
2023/10/14 09:51:38;;;;;;;0.50;0.40;;;15.90;99.90;;;;;;5057651;28;20448;-79
2023/10/14 09:54:07;;;;;;;0.50;0.40;;;15.70;99.90;;;;;;5067214;28;20457;-79
2023/10/14 09:56:40;;;;;;;0.50;0.40;;;15.70;99.90;;;;;;5064471;28;20442;-81
2023/10/14 09:59:08;;;;;;;1.27;0.80;;;15.70;99.90;;;;;;5059266;28;20433;-81
2023/10/14 10:01:35;;;;;;;0.50;0.40;;;15.70;99.90;;;;;;5058527;28;20437;-80
2023/10/14 10:04:08;;;;;;;0.50;0.40;;;15.80;99.90;;;;;;5058278;28;20551;-81
2023/10/14 10:06:47;;;;;;;1.63;0.63;;;16.00;99.90;;;;;;5056576;28;20832;-80
2023/10/14 10:09:30;;;;;;;0.50;0.40;;;16.30;99.90;;;;;;5055867;28;20429;-78
2023/10/14 10:11:59;;;;;;;0.80;0.70;;;16.20;99.90;;;;;;5057287;28;20786;-80
2023/10/14 10:14:28;;;;;;;0.50;0.40;;;16.20;99.90;;;;;;5057443;28;20450;-81
2023/10/14 10:17:00;;;;;;;0.50;0.40;;;16.20;99.90;;;;;;5058591;28;20430;-80
2023/10/14 10:20:08;;;;;;;0.50;0.40;;;16.60;99.90;;;;;;5057300;28;20437;-81
2023/10/14 10:22:43;;;;;;;0.50;0.40;;;17.00;99.90;;;;;;5055883;28;20972;-81
2023/10/14 10:25:14;;;;;;;1.90;0.47;;;17.00;99.90;;;;;;5059643;28;20473;-79
2023/10/14 10:27:41;;;;;;;0.50;0.30;;;17.40;99.90;;;;;;5058431;28;20429;-81
2023/10/14 10:30:12;;;;;;;0.50;0.40;;;18.00;99.90;;;;;;5057080;28;20430;-80
2023/10/14 10:32:41;;;;;;;0.50;0.40;;;17.90;99.90;;;;;;5057110;28;20536;-82
2023/10/14 10:35:16;;;;;;;0.50;0.30;;;17.80;99.90;;;;;;5058211;28;20446;-81
2023/10/14 10:37:50;;;;;;;0.50;0.40;;;18.20;99.90;;;;;;5058361;28;20516;-81
2023/10/14 10:40:22;;;;;;;0.50;0.40;;;17.90;99.90;;;;;;5058319;28;20433;-81
2023/10/14 10:42:53;;;;;;;0.50;0.30;;;17.70;99.90;;;;;;5058222;28;20541;-81
2023/10/14 10:45:21;;;;;;;0.50;0.40;;;17.90;99.90;;;;;;5057832;28;20470;-79
2023/10/14 10:47:54;;;;;;;0.50;0.30;;;17.80;99.90;;;;;;5058024;28;20434;-81
2023/10/14 10:50:23;;;;;;;0.50;0.30;;;18.10;99.90;;;;;;5056971;28;20438;-82
2023/10/14 10:52:55;;;;;;;0.50;0.30;;;18.60;99.90;;;;;;5056534;28;20453;-80
2023/10/14 10:55:24;;;;;;;0.97;0.43;;;19.50;99.90;;;;;;5057160;28;20429;-81
2023/10/14 10:58:01;;;;;;;1.10;1.10;;;19.60;99.90;;;;;;5057165;28;20429;-80
2023/10/14 11:00:31;;;;;;;0.50;0.40;;;20.20;99.90;;;;;;5057362;28;20459;-79
2023/10/14 11:02:58;;;;;;;0.50;0.30;;;20.70;97.40;;;;;;5058387;28;20511;-81
2023/10/14 11:05:26;;;;;;;0.50;0.30;;;21.00;95.10;;;;;;5057963;28;20477;-81
2023/10/14 11:07:54;;;;;;;0.60;0.57;;;21.30;95.20;;;;;;5057219;28;20433;-82
2023/10/14 11:10:26;;;;;;;0.60;0.50;;;21.30;91.90;;;;;;5056398;28;20817;-81
2023/10/14 11:12:56;;;;;;;0.50;0.30;;;20.70;90.80;;;;;;5056321;28;20462;-81
2023/10/14 11:15:24;;;;;;;3.60;0.70;;;20.50;93.10;;;;;;5057168;28;20491;-80
2023/10/14 11:17:53;;;;;;;0.60;0.40;;;20.80;91.20;;;;;;5056212;28;20444;-81
2023/10/14 11:20:20;;;;;;;0.50;0.30;;;21.10;90.10;;;;;;5057239;28;20450;-81
2023/10/14 11:22:49;;;;;;;0.50;0.30;;;20.60;89.40;;;;;;5057432;28;20468;-81
2023/10/14 11:25:18;;;;;;;0.60;0.40;;;21.20;91.20;;;;;;5057479;28;20463;-81
2023/10/14 11:27:46;;;;;;;0.50;0.30;;;21.00;87.90;;;;;;5057893;28;20849;-81
2023/10/14 11:30:13;;;;;;;0.50;0.30;;;20.90;88.40;;;;;;5058579;28;20444;-82
2023/10/14 11:32:50;;;;;;;0.50;0.43;;;21.00;89.00;;;;;;5061250;28;20465;-81
2023/10/14 11:35:18;;;;;;;0.50;0.40;;;21.20;88.40;;;;;;5062408;28;20501;-81
2023/10/14 11:37:52;;;;;;;0.50;0.30;;;21.00;85.80;;;;;;5063316;28;20429;-82
2023/10/14 11:40:19;;;;;;;0.50;0.40;;;20.80;87.80;;;;;;5062123;28;20434;-81
2023/10/14 11:42:47;;;;;;;0.50;0.40;;;20.30;83.60;;;;;;5061551;28;20540;-82
2023/10/14 11:45:17;;;;;;;0.50;0.30;;;19.90;87.60;;;;;;5065198;28;20434;-81
2023/10/14 11:47:44;;;;;;;0.50;0.30;;;19.90;86.90;;;;;;5063159;28;20441;-81
2023/10/14 11:50:11;;;;;;;0.50;0.50;;;20.10;86.10;;;;;;5065727;28;21169;-80
2023/10/14 11:52:40;;;;;;;0.50;0.40;;;19.70;85.30;;;;;;5062561;28;20817;-81
2023/10/14 11:55:11;;;;;;;5.60;0.87;;;19.20;90.00;;;;;;5059533;28;20440;-81
2023/10/14 11:57:38;;;;;;;0.50;0.30;;;18.50;90.00;;;;;;5064696;28;20507;-80
2023/10/14 12:00:10;;;;;;;3.40;3.20;;;18.10;92.00;;;;;;5067251;28;20430;-81
2023/10/14 12:02:37;;;;;;;0.50;0.30;;;18.50;91.30;;;;;;5065393;28;20524;-81
2023/10/14 12:05:05;;;;;;;0.50;0.50;;;18.80;91.70;;;;;;5062066;28;20445;-80
2023/10/14 12:07:32;;;;;;;0.50;0.30;;;19.20;89.20;;;;;;5058870;28;20541;-81
2023/10/14 12:10:00;;;;;;;0.50;0.30;;;19.20;90.50;;;;;;5058067;28;20444;-81
2023/10/14 12:12:28;;;;;;;0.50;0.30;;;19.00;86.60;;;;;;5057943;28;20430;-81
2023/10/14 12:14:54;;;;;;;0.50;0.40;;;18.90;86.90;;;;;;5056800;28;20504;-81
2023/10/14 12:17:21;;;;;;;0.50;0.40;;;18.70;83.90;;;;;;5056150;28;20430;-79
2023/10/14 12:19:48;;;;;;;1.17;0.60;;;18.50;84.60;;;;;;5056372;28;20503;-81
2023/10/14 12:22:15;;;;;;;0.50;0.30;;;18.20;89.60;;;;;;5057022;28;20449;-80
2023/10/14 12:24:42;;;;;;;0.50;0.40;;;18.10;89.80;;;;;;5064406;28;20448;-80
2023/10/14 12:27:13;;;;;;;0.50;0.30;;;18.20;90.30;;;;;;5061565;28;20530;-80
2023/10/14 12:29:42;;;;;;;0.50;0.30;;;18.10;90.80;;;;;;5065829;28;20440;-81
2023/10/14 12:32:12;;;;;;;0.50;0.30;;;17.90;87.30;;;;;;5063227;28;20512;-80
2023/10/14 12:34:43;;;;;;;0.70;0.40;;;17.70;90.00;;;;;;5064638;28;20453;-80
2023/10/14 12:37:17;;;;;;;1.60;1.50;;;17.90;91.20;;;;;;5064488;28;20441;-81
2023/10/14 12:39:48;;;;;;;0.50;0.30;;;17.90;90.20;;;;;;5064980;28;20433;-80
2023/10/14 12:42:17;;;;;;;0.50;0.30;;;17.70;90.50;;;;;;5064093;28;20456;-79
2023/10/14 12:44:49;;;;;;;0.50;0.37;;;17.40;90.90;;;;;;5065054;28;20470;-80
2023/10/14 12:47:20;;;;;;;0.50;0.30;;;17.20;91.80;;;;;;5066684;28;20465;-80
2023/10/14 12:49:48;;;;;;;0.50;0.37;;;17.10;92.10;;;;;;5066973;28;21010;-81
2023/10/14 12:52:19;;;;;;;0.50;0.40;;;17.40;92.20;;;;;;5064819;28;20440;-81
2023/10/14 12:54:51;;;;;;;0.50;0.40;;;18.40;91.10;;;;;;5061230;28;20426;-81
2023/10/14 12:57:18;;;;;;;0.50;0.30;;;18.80;85.10;;;;;;5060434;28;20442;-81
2023/10/14 12:59:46;;;;;;;0.50;0.30;;;19.30;82.80;;;;;;5066872;28;20472;-80
2023/10/14 13:02:17;;;;;;;0.50;0.30;;;19.60;76.10;;;;;;5071385;28;20501;-80
2023/10/14 13:04:44;;;;;;;1.00;0.77;;;19.60;77.80;;;;;;5072460;28;20797;-81
2023/10/14 13:07:11;;;;;;;0.50;0.30;;;19.80;76.40;;;;;;5071453;28;20484;-80